createdAt,value
2022-11-17T00:01:20.378Z,3.45
2022-11-17T00:03:51.232Z,3.00
2022-11-17T00:06:20.509Z,3.05
2022-11-17T00:08:48.782Z,2.67
2022-11-17T00:11:16.097Z,2.92
2022-11-17T00:14:01.644Z,2.90
2022-11-17T00:16:28.841Z,3.05
2022-11-17T00:19:14.819Z,3.20
2022-11-17T00:21:42.058Z,2.90
2022-11-17T00:24:09.253Z,3.25
2022-11-17T00:26:56.635Z,3.08
2022-11-17T00:29:23.862Z,2.70
2022-11-17T00:32:09.668Z,2.80
2022-11-17T00:34:36.845Z,3.20
2022-11-17T00:37:04.602Z,2.97
2022-11-17T00:39:31.753Z,2.63
2022-11-17T00:41:59.012Z,2.80
2022-11-17T00:44:26.322Z,3.20
2022-11-17T00:46:53.528Z,2.75
2022-11-17T00:49:21.533Z,2.85
2022-11-17T00:51:48.780Z,3.38
2022-11-17T00:54:15.982Z,3.67
2022-11-17T00:56:43.210Z,3.45
2022-11-17T00:59:10.461Z,2.88
2022-11-17T01:01:37.935Z,3.50
2022-11-17T01:04:05.331Z,2.70
2022-11-17T01:06:34.864Z,3.85
2022-11-17T01:09:02.769Z,2.80
2022-11-17T01:11:30.069Z,3.50
2022-11-17T01:13:58.160Z,3.75
2022-11-17T01:16:25.434Z,3.40
2022-11-17T01:18:52.685Z,4.05
2022-11-17T01:21:24.488Z,3.85
2022-11-17T01:23:52.924Z,3.85
2022-11-17T01:26:21.726Z,3.72
2022-11-17T01:28:49.086Z,3.60
2022-11-17T01:31:38.029Z,3.90
2022-11-17T01:34:05.505Z,3.72
2022-11-17T01:36:55.529Z,3.42
2022-11-17T01:39:26.237Z,3.47
2022-11-17T01:41:53.512Z,3.95
2022-11-17T01:44:51.537Z,4.03
2022-11-17T01:47:29.592Z,3.92
2022-11-17T01:50:04.111Z,3.97
2022-11-17T01:52:31.357Z,3.88
2022-11-17T01:54:58.562Z,3.92
2022-11-17T01:57:29.261Z,3.80
2022-11-17T01:59:59.061Z,3.90
2022-11-17T02:02:26.306Z,4.13
2022-11-17T02:05:00.659Z,3.38
2022-11-17T02:07:30.012Z,3.65
2022-11-17T02:09:57.454Z,3.70
2022-11-17T02:12:26.497Z,3.30
2022-11-17T02:14:54.049Z,3.60
2022-11-17T02:17:22.419Z,3.42
2022-11-17T02:20:13.337Z,3.83
2022-11-17T02:23:02.079Z,3.78
2022-11-17T02:25:50.518Z,3.47
2022-11-17T02:28:18.715Z,3.17
2022-11-17T02:30:55.265Z,3.30
2022-11-17T02:34:03.768Z,3.30
2022-11-17T02:36:58.696Z,3.08
2022-11-17T02:39:43.732Z,3.28
2022-11-17T02:42:13.950Z,3.10
2022-11-17T02:44:55.813Z,2.97
2022-11-17T02:47:25.970Z,2.97
2022-11-17T02:49:55.435Z,3.00
2022-11-17T02:52:22.627Z,2.95
2022-11-17T02:54:49.790Z,3.00
2022-11-17T02:57:33.666Z,2.97
2022-11-17T03:00:04.538Z,3.40
2022-11-17T03:02:56.922Z,2.97
2022-11-17T03:05:42.397Z,2.70
2022-11-17T03:08:23.092Z,2.85
2022-11-17T03:11:04.055Z,3.03
2022-11-17T03:14:26.626Z,3.00
2022-11-17T03:17:01.540Z,2.80
2022-11-17T03:19:50.333Z,2.78
2022-11-17T03:22:24.009Z,2.88
2022-11-17T03:25:01.949Z,2.80
2022-11-17T03:27:33.881Z,2.38
2022-11-17T03:30:04.358Z,2.50
2022-11-17T03:32:33.917Z,2.53
2022-11-17T03:35:04.473Z,2.40
2022-11-17T03:37:31.991Z,2.17
2022-11-17T03:40:01.987Z,2.40
2022-11-17T03:42:30.548Z,2.47
2022-11-17T03:45:04.157Z,2.38
2022-11-17T03:47:31.377Z,2.25
2022-11-17T03:50:34.356Z,2.10
2022-11-17T03:53:02.301Z,2.25
2022-11-17T03:55:50.609Z,2.28
2022-11-17T03:58:18.206Z,1.83
2022-11-17T04:00:45.821Z,2.10
2022-11-17T04:03:13.045Z,2.10
2022-11-17T04:05:40.261Z,2.00
2022-11-17T04:08:07.453Z,2.10
2022-11-17T04:10:54.577Z,2.05
2022-11-17T04:13:40.154Z,2.20
2022-11-17T04:16:07.642Z,1.70
2022-11-17T04:18:34.816Z,1.80
2022-11-17T04:21:02.241Z,1.70
2022-11-17T04:23:29.428Z,2.00
2022-11-17T04:26:15.401Z,1.95
2022-11-17T04:28:48.238Z,2.10
2022-11-17T04:31:19.289Z,1.80
2022-11-17T04:33:48.192Z,1.98
2022-11-17T04:36:19.869Z,1.70
2022-11-17T04:38:48.418Z,1.92
2022-11-17T04:41:34.655Z,1.85
2022-11-17T04:44:02.121Z,1.80
2022-11-17T04:46:32.801Z,1.92
2022-11-17T04:49:00.098Z,1.83
2022-11-17T04:51:27.599Z,1.63
2022-11-17T04:53:54.848Z,1.80
2022-11-17T04:56:22.329Z,1.80
2022-11-17T04:58:49.679Z,1.95
2022-11-17T05:01:18.161Z,1.88
2022-11-17T05:03:52.786Z,2.00
2022-11-17T05:06:25.023Z,1.50
2022-11-17T05:08:55.878Z,1.80
2022-11-17T05:11:43.508Z,1.60
2022-11-17T05:14:10.857Z,1.80
2022-11-17T05:16:56.546Z,2.83
2022-11-17T05:19:25.490Z,2.00
2022-11-17T05:21:52.856Z,1.83
2022-11-17T05:24:20.320Z,1.83
2022-11-17T05:26:48.165Z,1.80
2022-11-17T05:29:16.809Z,1.83
2022-11-17T05:31:44.324Z,1.70
2022-11-17T05:34:12.529Z,3.35
2022-11-17T05:36:40.141Z,2.40
2022-11-17T05:39:07.494Z,2.20
2022-11-17T05:41:34.845Z,2.70
2022-11-17T05:44:02.174Z,2.45
2022-11-17T05:46:29.374Z,3.05
2022-11-17T05:48:56.537Z,3.17
2022-11-17T05:51:24.028Z,5.25
2022-11-17T05:53:51.217Z,4.97
2022-11-17T05:56:36.785Z,6.68
2022-11-17T05:59:09.933Z,7.20
2022-11-17T06:01:38.922Z,3.00
2022-11-17T06:04:06.930Z,2.10
2022-11-17T06:06:34.682Z,2.53
2022-11-17T06:09:02.019Z,2.42
2022-11-17T06:11:29.196Z,2.63
2022-11-17T06:13:56.377Z,2.70
2022-11-17T06:16:25.238Z,2.90
2022-11-17T06:18:55.979Z,2.50
2022-11-17T06:21:23.154Z,2.15
2022-11-17T06:23:50.347Z,2.38
2022-11-17T06:26:17.546Z,2.38
2022-11-17T06:28:45.865Z,2.50
2022-11-17T06:31:13.420Z,2.80
2022-11-17T06:33:40.619Z,2.00
2022-11-17T06:36:08.026Z,1.65
2022-11-17T06:38:36.169Z,2.10
2022-11-17T06:41:08.832Z,2.10
2022-11-17T06:43:39.001Z,2.00
2022-11-17T06:46:06.287Z,2.03
2022-11-17T06:48:35.453Z,1.90
2022-11-17T06:51:06.390Z,2.20
2022-11-17T06:53:34.249Z,1.80
2022-11-17T06:56:04.540Z,1.80
2022-11-17T06:58:31.900Z,2.00
2022-11-17T07:01:12.873Z,2.35
2022-11-17T07:03:41.029Z,2.60
2022-11-17T07:06:09.241Z,1.70
2022-11-17T07:08:37.108Z,1.70
2022-11-17T07:11:15.154Z,1.75
2022-11-17T07:13:42.660Z,1.70
2022-11-17T07:16:18.676Z,2.47
2022-11-17T07:18:49.152Z,2.20
2022-11-17T07:21:16.394Z,2.50
2022-11-17T07:23:44.995Z,2.00
2022-11-17T07:26:12.357Z,2.45
2022-11-17T07:28:39.649Z,2.20
2022-11-17T07:31:08.302Z,2.35
2022-11-17T07:33:35.728Z,1.90
2022-11-17T07:36:07.618Z,2.05
2022-11-17T07:38:35.599Z,1.98
2022-11-17T07:41:03.565Z,2.38
2022-11-17T07:43:30.948Z,2.03
2022-11-17T07:45:58.203Z,2.40
2022-11-17T07:48:25.404Z,2.00
2022-11-17T07:50:52.638Z,2.38
2022-11-17T07:53:19.927Z,2.60
2022-11-17T07:55:47.187Z,2.25
2022-11-17T07:58:14.415Z,2.53
2022-11-17T08:00:41.729Z,2.45
2022-11-17T08:03:10.116Z,2.13
2022-11-17T08:05:43.320Z,2.40
2022-11-17T08:08:13.029Z,2.40
2022-11-17T08:10:40.320Z,2.00
2022-11-17T08:13:07.692Z,2.30
2022-11-17T08:15:36.080Z,2.30
2022-11-17T08:18:03.371Z,2.40
2022-11-17T08:20:30.636Z,2.60
2022-11-17T08:22:57.897Z,2.95
2022-11-17T08:25:25.996Z,3.63
2022-11-17T08:27:57.985Z,3.13
2022-11-17T08:30:25.797Z,2.95
2022-11-17T08:32:53.500Z,3.10
2022-11-17T08:35:25.000Z,2.80
2022-11-17T08:37:52.787Z,2.60
2022-11-17T08:40:20.539Z,2.47
2022-11-17T08:42:49.533Z,2.58
2022-11-17T08:45:16.823Z,2.63
2022-11-17T08:47:44.231Z,2.50
2022-11-17T08:50:11.471Z,2.30
2022-11-17T08:52:38.804Z,2.33
2022-11-17T08:55:06.933Z,2.20
2022-11-17T08:57:34.299Z,2.60
2022-11-17T09:00:01.752Z,2.25
2022-11-17T09:02:28.999Z,2.10
2022-11-17T09:04:56.280Z,1.80
2022-11-17T09:07:23.539Z,2.10
2022-11-17T09:09:50.820Z,1.80
2022-11-17T09:12:18.789Z,2.10
2022-11-17T09:14:45.976Z,2.35
2022-11-17T09:17:13.183Z,1.75
2022-11-17T09:19:40.551Z,1.98
2022-11-17T09:22:08.015Z,2.28
2022-11-17T09:24:35.266Z,2.35
2022-11-17T09:27:05.051Z,2.13
2022-11-17T09:29:32.256Z,2.47
2022-11-17T09:31:59.537Z,2.90
2022-11-17T09:34:27.421Z,2.45
2022-11-17T09:36:54.624Z,2.33
2022-11-17T09:39:21.947Z,2.00
2022-11-17T09:41:50.626Z,2.25
2022-11-17T09:44:39.885Z,2.50
2022-11-17T09:47:10.360Z,2.17
2022-11-17T09:50:15.859Z,1.80
2022-11-17T09:52:43.075Z,2.20
2022-11-17T09:55:15.211Z,2.00
2022-11-17T09:57:44.180Z,2.13
2022-11-17T10:00:18.926Z,2.08
2022-11-17T10:05:30.266Z,2.22
2022-11-17T10:08:06.218Z,2.03
2022-11-17T10:10:39.227Z,2.13
2022-11-17T10:13:07.158Z,2.05
2022-11-17T10:15:51.664Z,1.90
2022-11-17T10:18:18.910Z,1.80
2022-11-17T10:20:46.368Z,1.35
2022-11-17T10:23:15.376Z,1.15
2022-11-17T10:25:44.287Z,1.40
2022-11-17T10:28:44.125Z,1.30
2022-11-17T10:31:12.906Z,1.25
2022-11-17T10:33:48.224Z,1.20
2022-11-17T10:36:18.475Z,1.05
2022-11-17T10:38:47.328Z,1.23
2022-11-17T10:41:17.259Z,1.33
2022-11-17T10:44:12.359Z,1.20
2022-11-17T10:47:44.031Z,1.40
2022-11-17T10:50:27.571Z,1.50
2022-11-17T10:52:55.968Z,1.23
2022-11-17T10:55:31.597Z,1.27
2022-11-17T10:58:18.226Z,1.60
2022-11-17T11:00:45.528Z,1.20
2022-11-17T11:03:17.356Z,1.10
2022-11-17T11:06:02.451Z,1.13
2022-11-17T11:08:43.585Z,0.90
2022-11-17T11:11:38.078Z,0.90
2022-11-17T11:14:26.334Z,0.90
2022-11-17T11:16:53.562Z,3.80
2022-11-17T11:19:21.046Z,2.53
2022-11-17T11:22:03.776Z,1.10
2022-11-17T11:25:05.028Z,1.00
2022-11-17T11:27:53.807Z,1.23
2022-11-17T11:30:21.107Z,0.90
2022-11-17T11:33:09.530Z,1.08
2022-11-17T11:35:41.059Z,1.00
2022-11-17T11:38:20.257Z,1.25
2022-11-17T11:40:59.228Z,1.27
2022-11-17T11:43:54.275Z,1.10
2022-11-17T11:46:53.286Z,1.30
2022-11-17T11:49:26.394Z,1.27
2022-11-17T11:51:53.993Z,1.30
2022-11-17T11:54:50.971Z,1.70
2022-11-17T11:57:20.571Z,1.88
2022-11-17T11:59:57.185Z,2.10
2022-11-17T12:02:38.737Z,1.83
2022-11-17T12:05:05.995Z,1.75
2022-11-17T12:07:56.105Z,1.50
2022-11-17T12:10:43.057Z,1.45
2022-11-17T12:13:14.774Z,1.38
2022-11-17T12:15:42.155Z,1.30
2022-11-17T12:18:18.496Z,1.33
2022-11-17T12:20:59.529Z,1.42
2022-11-17T12:23:39.776Z,1.40
2022-11-17T12:26:07.064Z,1.48
2022-11-17T12:28:43.263Z,1.58
2022-11-17T12:31:11.766Z,1.50
2022-11-17T12:33:54.145Z,1.20
2022-11-17T12:36:30.255Z,1.42
2022-11-17T12:38:59.596Z,1.23
2022-11-17T12:41:48.941Z,1.30
2022-11-17T12:44:35.029Z,1.63
2022-11-17T12:47:13.124Z,1.17
2022-11-17T12:50:02.054Z,1.05
2022-11-17T12:52:44.320Z,1.65
2022-11-17T12:55:26.404Z,1.50
2022-11-17T12:58:10.546Z,1.10
2022-11-17T13:00:52.761Z,1.55
2022-11-17T13:03:28.006Z,1.33
2022-11-17T13:09:00.550Z,1.20
2022-11-17T13:11:28.268Z,1.65
2022-11-17T13:14:12.090Z,1.30
2022-11-17T13:16:49.787Z,1.40
2022-11-17T13:19:37.652Z,1.88
2022-11-17T13:22:16.567Z,1.90
2022-11-17T13:24:45.916Z,1.60
2022-11-17T13:27:31.427Z,1.77
2022-11-17T13:30:27.768Z,1.67
2022-11-17T13:32:55.808Z,2.22
2022-11-17T13:35:27.007Z,2.00
2022-11-17T13:38:21.240Z,1.50
2022-11-17T13:40:52.206Z,1.63
2022-11-17T13:43:20.556Z,1.67
2022-11-17T13:45:48.983Z,1.35
2022-11-17T13:48:36.274Z,1.40
2022-11-17T13:51:22.736Z,1.25
2022-11-17T13:53:52.951Z,1.67
2022-11-17T13:56:27.126Z,1.65
2022-11-17T13:58:54.339Z,1.58
2022-11-17T14:01:24.065Z,1.30
2022-11-17T14:03:51.540Z,1.40
2022-11-17T14:06:18.815Z,1.67
2022-11-17T14:09:03.409Z,1.70
2022-11-17T14:11:30.674Z,1.33
2022-11-17T14:14:01.322Z,1.60
2022-11-17T14:16:34.803Z,1.90
2022-11-17T14:19:26.291Z,1.52
2022-11-17T14:22:03.844Z,1.65
2022-11-17T14:24:31.811Z,2.58
2022-11-17T14:26:59.327Z,3.55
2022-11-17T14:29:27.926Z,2.13
2022-11-17T14:31:56.010Z,2.50
2022-11-17T14:34:23.502Z,3.28
2022-11-17T14:36:53.365Z,2.30
2022-11-17T14:39:20.909Z,2.40
2022-11-17T14:41:49.279Z,2.00
2022-11-17T14:44:16.622Z,1.70
2022-11-17T14:46:43.910Z,2.45
2022-11-17T14:49:11.138Z,2.45
2022-11-17T14:51:38.342Z,1.83
2022-11-17T14:54:05.602Z,2.40
2022-11-17T14:56:34.820Z,1.92
2022-11-17T14:59:02.241Z,2.42
2022-11-17T15:01:31.636Z,1.65
2022-11-17T15:04:04.183Z,1.92
2022-11-17T15:06:42.861Z,1.90
2022-11-17T15:09:12.714Z,1.75
2022-11-17T15:11:40.022Z,1.60
2022-11-17T15:14:07.275Z,1.92
2022-11-17T15:16:34.585Z,1.67
2022-11-17T15:19:02.498Z,1.65
2022-11-17T15:21:29.667Z,1.33
2022-11-17T15:23:57.192Z,1.58
2022-11-17T15:26:24.594Z,1.98
2022-11-17T15:28:51.839Z,1.90
2022-11-17T15:31:19.851Z,3.47
2022-11-17T15:33:47.664Z,7.00
2022-11-17T15:36:16.776Z,3.90
2022-11-17T15:38:44.054Z,3.28
2022-11-17T15:41:12.382Z,2.17
2022-11-17T15:43:40.926Z,2.55
2022-11-17T15:46:11.884Z,8.15
2022-11-17T15:48:42.139Z,4.53
2022-11-17T15:51:14.239Z,2.20
2022-11-17T15:53:42.193Z,1.95
2022-11-17T15:56:23.215Z,1.83
2022-11-17T15:58:58.515Z,2.30
2022-11-17T16:01:25.761Z,2.38
2022-11-17T16:03:53.582Z,3.13
2022-11-17T16:06:20.874Z,2.42
2022-11-17T16:08:48.071Z,2.20
2022-11-17T16:11:15.296Z,2.92
2022-11-17T16:13:42.580Z,2.75
2022-11-17T16:16:14.354Z,2.88
2022-11-17T16:18:41.754Z,2.70
2022-11-17T16:21:11.006Z,2.67
2022-11-17T16:23:46.118Z,3.50
2022-11-17T16:26:14.974Z,3.70
2022-11-17T16:28:42.556Z,3.70
2022-11-17T16:31:13.960Z,3.10
2022-11-17T16:33:41.615Z,5.38
2022-11-17T16:36:09.135Z,4.82
2022-11-17T16:38:36.534Z,4.38
2022-11-17T16:41:03.831Z,3.90
2022-11-17T16:43:31.132Z,3.83
2022-11-17T16:45:58.317Z,3.20
2022-11-17T16:48:25.704Z,3.13
2022-11-17T16:50:52.942Z,3.22
2022-11-17T16:53:20.154Z,3.35
2022-11-17T16:55:47.390Z,3.88
2022-11-17T16:58:14.693Z,4.40
2022-11-17T17:00:41.891Z,4.43
2022-11-17T17:03:09.250Z,4.25
2022-11-17T17:05:40.786Z,5.28
2022-11-17T17:08:07.971Z,4.47
2022-11-17T17:10:35.168Z,4.93
2022-11-17T17:13:02.382Z,4.75
2022-11-17T17:15:30.265Z,5.05
2022-11-17T17:17:57.553Z,4.95
2022-11-17T17:20:24.886Z,4.30
2022-11-17T17:22:52.267Z,4.72
2022-11-17T17:25:19.514Z,5.05
2022-11-17T17:27:46.723Z,5.40
2022-11-17T17:30:14.533Z,4.93
2022-11-17T17:32:41.977Z,5.32
2022-11-17T17:35:09.401Z,6.00
2022-11-17T17:37:36.577Z,10.35
2022-11-17T17:40:04.059Z,12.85
2022-11-17T17:42:31.226Z,9.68
2022-11-17T17:44:58.470Z,5.53
2022-11-17T17:47:25.651Z,4.82
2022-11-17T17:49:52.865Z,5.63
2022-11-17T17:52:20.126Z,6.28
2022-11-17T17:54:47.351Z,7.00
2022-11-17T17:57:14.581Z,6.72
2022-11-17T17:59:41.765Z,6.72
2022-11-17T18:02:09.918Z,7.20
2022-11-17T18:04:37.243Z,7.50
2022-11-17T18:07:04.605Z,7.25
2022-11-17T18:09:31.890Z,6.97
2022-11-17T18:11:59.126Z,6.05
2022-11-17T18:14:26.482Z,6.40
2022-11-17T18:16:53.878Z,7.13
2022-11-17T18:19:21.153Z,8.10
2022-11-17T18:21:48.355Z,6.85
2022-11-17T18:24:15.542Z,5.85
2022-11-17T18:26:42.943Z,5.60
2022-11-17T18:29:15.483Z,5.80
2022-11-17T18:31:43.066Z,5.68
2022-11-17T18:34:23.964Z,5.78
2022-11-17T18:36:52.060Z,5.35
2022-11-17T18:39:19.571Z,5.88
2022-11-17T18:41:47.102Z,6.13
2022-11-17T18:44:14.922Z,5.68
2022-11-17T18:46:42.168Z,5.38
2022-11-17T18:49:09.561Z,5.88
2022-11-17T18:51:36.758Z,6.15
2022-11-17T18:54:04.148Z,5.90
2022-11-17T18:56:33.026Z,6.18
2022-11-17T18:59:00.351Z,6.50
2022-11-17T19:01:28.504Z,5.65
2022-11-17T19:03:57.358Z,6.07
2022-11-17T19:06:25.016Z,6.30
2022-11-17T19:08:52.323Z,6.45
2022-11-17T19:11:20.279Z,6.65
2022-11-17T19:13:47.650Z,6.70
2022-11-17T19:16:22.719Z,6.40
2022-11-17T19:18:51.049Z,6.50
2022-11-17T19:21:19.006Z,6.22
2022-11-17T19:23:51.336Z,6.72
2022-11-17T19:26:37.983Z,5.97
2022-11-17T19:29:09.900Z,5.22
2022-11-17T19:34:07.122Z,5.45
2022-11-17T19:36:34.594Z,6.15
2022-11-17T19:39:02.218Z,5.65
2022-11-17T19:41:30.312Z,5.60
2022-11-17T19:43:59.276Z,5.95
2022-11-17T19:46:27.540Z,6.20
2022-11-17T19:48:58.092Z,5.25
2022-11-17T19:51:26.738Z,5.82
2022-11-17T19:53:55.402Z,5.65
2022-11-17T19:56:23.019Z,5.20
2022-11-17T19:58:50.473Z,5.40
2022-11-17T20:01:28.106Z,5.20
2022-11-17T20:03:56.076Z,5.15
2022-11-17T20:06:27.178Z,5.30
2022-11-17T20:08:55.353Z,4.93
2022-11-17T20:11:23.895Z,5.15
2022-11-17T20:13:51.200Z,4.95
2022-11-17T20:16:19.897Z,5.00
2022-11-17T20:18:57.421Z,5.45
2022-11-17T20:21:25.423Z,5.00
2022-11-17T20:23:52.692Z,5.65
2022-11-17T20:26:21.557Z,6.07
2022-11-17T20:28:48.817Z,5.07
2022-11-17T20:31:20.556Z,5.15
2022-11-17T20:33:48.182Z,5.25
2022-11-17T20:36:17.030Z,5.15
2022-11-17T20:38:44.366Z,4.30
2022-11-17T20:41:11.620Z,4.60
2022-11-17T20:43:38.906Z,5.25
2022-11-17T20:46:06.239Z,4.82
2022-11-17T20:48:35.238Z,4.60
2022-11-17T20:51:07.178Z,4.93
2022-11-17T20:53:34.526Z,4.47
2022-11-17T20:56:02.611Z,4.95
2022-11-17T20:58:30.103Z,4.63
2022-11-17T21:00:57.526Z,5.35
2022-11-17T21:03:25.958Z,5.93
2022-11-17T21:06:00.166Z,4.47
2022-11-17T21:08:28.916Z,4.82
2022-11-17T21:11:00.688Z,4.38
2022-11-17T21:13:28.191Z,4.63
2022-11-17T21:16:24.839Z,4.00
2022-11-17T21:18:52.023Z,3.85
2022-11-17T21:21:19.208Z,4.35
2022-11-17T21:23:46.422Z,7.50
2022-11-17T21:26:19.293Z,18.80
2022-11-17T21:28:46.842Z,12.85
2022-11-17T21:31:18.919Z,10.35
2022-11-17T21:33:46.243Z,8.75
2022-11-17T21:36:16.996Z,5.15
2022-11-17T21:38:44.905Z,3.42
2022-11-17T21:41:15.307Z,3.88
2022-11-17T21:43:43.494Z,3.60
2022-11-17T21:46:12.957Z,2.78
2022-11-17T21:48:40.128Z,2.95
2022-11-17T21:51:12.694Z,2.75
2022-11-17T21:53:39.934Z,2.75
2022-11-17T21:56:07.598Z,2.83
2022-11-17T21:58:34.870Z,2.38
2022-11-17T22:01:09.960Z,2.28
2022-11-17T22:03:37.719Z,2.60
2022-11-17T22:06:09.202Z,2.40
2022-11-17T22:08:40.912Z,2.80
2022-11-17T22:11:10.334Z,2.97
2022-11-17T22:13:37.534Z,3.85
2022-11-17T22:16:10.030Z,5.43
2022-11-17T22:18:37.250Z,4.88
2022-11-17T22:21:04.790Z,4.97
2022-11-17T22:23:32.080Z,3.17
2022-11-17T22:26:00.902Z,2.88
2022-11-17T22:28:28.351Z,2.90
2022-11-17T22:30:55.620Z,2.33
2022-11-17T22:33:22.880Z,2.72
2022-11-17T22:35:50.224Z,2.55
2022-11-17T22:38:17.531Z,2.65
2022-11-17T22:40:45.174Z,2.60
2022-11-17T22:43:15.316Z,2.38
2022-11-17T22:45:42.867Z,1.70
2022-11-17T22:48:10.140Z,2.15
2022-11-17T22:50:37.394Z,2.38
2022-11-17T22:53:04.579Z,1.90
2022-11-17T22:55:33.314Z,2.05
2022-11-17T22:58:00.623Z,1.80
2022-11-17T23:00:27.929Z,1.85
2022-11-17T23:02:55.253Z,1.70
2022-11-17T23:05:22.531Z,2.30
2022-11-17T23:07:49.755Z,2.50
2022-11-17T23:10:17.279Z,1.63
2022-11-17T23:12:44.549Z,2.20
2022-11-17T23:15:11.828Z,1.73
2022-11-17T23:17:39.015Z,1.98
2022-11-17T23:20:06.952Z,2.08
2022-11-17T23:22:34.197Z,1.95
2022-11-17T23:25:01.851Z,1.63
2022-11-17T23:27:29.150Z,1.63
2022-11-17T23:29:56.383Z,1.65
2022-11-17T23:32:23.569Z,1.70
2022-11-17T23:34:50.768Z,2.15
2022-11-17T23:37:18.067Z,1.38
2022-11-17T23:39:45.323Z,1.40
2022-11-17T23:42:12.531Z,1.33
2022-11-17T23:44:39.758Z,1.38
2022-11-17T23:47:06.987Z,1.20
2022-11-17T23:49:34.223Z,1.10
2022-11-17T23:52:01.419Z,1.42
2022-11-17T23:54:28.607Z,1.30
2022-11-17T23:56:55.838Z,0.93
2022-11-17T23:59:23.088Z,1.10
